Airfield :
LOGIN :

Register | Disclaimer

   EN    FR    IT 

 










Legend :    VFR   Marginal VFR   IFR   Intensive IFR   Very Intensive IFR
Visi :
Ceiling :
>= 8 km
>= 3000ft
5 to 8 km
1000 to 3000 ft
1500m to 5 km
500 to 1000 ft
800 to 1500m
200 to 500 ft
< 800m
< 200 ft
Symbols :   Thunderstorms  Fog  Heavy snow  Heavy precipitations  Wind > 20 kt
SIGMETs :     Misc.  Thunderstorms  Icing  Turbulence  Mountain Waves  Volcanic Ashes






- Airport Elevation : 74 ft
- IATA code : EIN


EHEH - Eindhoven

CURRENT METAR :
  • 130355Z AUTO 26004KT 9999 NCD M03/M03 Q1031 BLU

EXPIRED METARs :
  • 130325Z AUTO 25003KT 9999 NCD M02/M03 Q1031 BLU
  • 130255Z AUTO 22002KT 9999 NCD M02/M02 Q1031 BLU
  • 130225Z AUTO 22002KT 9999 NCD M02/M03 Q1031 BLU
  • 130155Z AUTO 25003KT 9999 SCT027 M01/M03 Q1031 BLU
  • 130125Z AUTO 27004KT 240V300 9999 FEW025 M00/M02 Q1031 BLU

TAF TAF EHEH
Valid from the 13 at 00:00 until the 14 at 06:00 UTC


122318Z 1300/1406 26003KT 9999 FEW030
BECMG 1308/1311 31007KT
PROB40
TEMPO 1311/1317 32010G20KT 4500 -SHRA FEW015 SCT020CB
BECMG 1319/1322 VRB02KT
PROB30 1402/1406 3000 BR



MET'MAP, your aeronautical weather chart ! - Copyright ORBIFLY December 2007 - Disclaimer

ORBIFLY MET'MAP TEAM :

Programming & Development : Alexandra Zaïnal
Concept & original design : Baudouin d'Aumeries
Assistance for programming : Marc-Olivier Méhu
Technical & hardware support : Manuel Goepfert

Contact : metmap@orbifly.com




SOURCES & CREDITS :

   NOAA